Time;durP1;ratioP1;P1;durP2;ratioP2;P2;SDS_P1;SDS_P2;PMS_P1;PMS_P2;Temp;Humidity;BMP_temperature;BMP_pressure;BME280_temperature;BME280_humidity;BME280_pressure;Samples;Min_cycle;Max_cycle;Signal;HPM_P1;HPM_P2
2021/06/12 00:00:13;;;;;;;13.82;12.52;;;15.80;99.90;;;;;;6285935;28;20369;-81
2021/06/12 00:03:13;;;;;;;14.52;12.70;;;15.40;99.90;;;;;;6318919;28;20445;-83
2021/06/12 00:06:14;;;;;;;14.15;12.68;;;15.50;99.90;;;;;;6302395;28;20070;-80
2021/06/12 00:09:14;;;;;;;14.88;12.50;;;15.30;99.90;;;;;;6301765;28;20039;-82
2021/06/12 00:12:15;;;;;;;16.45;11.73;;;15.40;99.90;;;;;;6302009;28;20030;-79
2021/06/12 00:15:17;;;;;;;14.57;12.60;;;15.50;99.90;;;;;;6318553;28;20080;-83
2021/06/12 00:18:18;;;;;;;16.52;12.77;;;;;;;;;;6318522;28;20382;-83
2021/06/12 00:21:19;;;;;;;14.25;12.88;;;15.40;99.90;;;;;;6318262;28;20020;-84
2021/06/12 00:24:20;;;;;;;16.48;12.82;;;;;;;;;;6319592;28;20073;-81
2021/06/12 00:27:21;;;;;;;13.63;12.10;;;;;;;;;;6301759;28;20577;-82
2021/06/12 00:30:21;;;;;;;15.45;12.60;;;15.20;99.90;;;;;;6318005;28;20029;-80
2021/06/12 00:33:22;;;;;;;14.90;12.55;;;;;;;;;;6301079;28;20462;-82
2021/06/12 00:36:23;;;;;;;14.18;11.68;;;15.20;99.90;;;;;;6319403;28;20024;-81
2021/06/12 00:39:23;;;;;;;13.90;12.50;;;15.20;99.90;;;;;;6284564;28;20032;-80
2021/06/12 00:42:24;;;;;;;13.02;11.77;;;15.10;99.90;;;;;;6318591;28;20166;-84
2021/06/12 00:45:27;;;;;;;13.65;12.23;;;15.10;99.90;;;;;;6300750;28;20665;-79
2021/06/12 00:48:28;;;;;;;14.90;11.77;;;15.30;99.90;;;;;;6301263;28;20594;-80
2021/06/12 00:51:28;;;;;;;13.60;12.23;;;15.10;99.90;;;;;;6316920;28;20040;-80
2021/06/12 00:54:29;;;;;;;12.68;11.55;;;15.20;99.90;;;;;;6301296;28;20028;-80
2021/06/12 00:57:29;;;;;;;13.80;11.15;;;15.10;99.90;;;;;;6317455;28;20045;-80
2021/06/12 01:00:30;;;;;;;12.73;11.23;;;15.00;99.90;;;;;;6300945;28;20055;-85
2021/06/12 01:03:31;;;;;;;14.68;11.68;;;14.90;99.90;;;;;;6317550;28;20040;-82
2021/06/12 01:06:31;;;;;;;13.40;12.05;;;14.90;99.90;;;;;;6300951;28;20035;-79
2021/06/12 01:09:32;;;;;;;12.68;11.52;;;14.90;99.90;;;;;;6300431;28;20084;-81
2021/06/12 01:12:44;;;;;;;12.55;11.38;;;14.40;99.90;;;;;;6317259;28;20035;-83
2021/06/12 01:15:54;;;;;;;;;;;14.90;99.90;;;;;;6317679;28;20028;-79
2021/06/12 01:18:56;;;;;;;13.73;11.50;;;14.80;99.90;;;;;;6317563;28;19908;-82
2021/06/12 01:21:58;;;;;;;12.17;10.97;;;14.80;99.90;;;;;;6300810;28;20039;-82
2021/06/12 01:25:02;;;;;;;;;;;15.20;99.90;;;;;;6301274;28;20020;-81
2021/06/12 01:28:08;;;;;;;13.48;12.13;;;14.80;99.90;;;;;;6317151;28;19912;-84
2021/06/12 01:31:09;;;;;;;12.90;11.70;;;14.80;99.90;;;;;;6317919;28;20048;-80
2021/06/12 01:34:09;;;;;;;12.02;10.90;;;14.70;99.90;;;;;;6300256;28;20354;-79
2021/06/12 01:37:10;;;;;;;13.18;11.68;;;14.70;99.90;;;;;;6317075;28;20568;-79
2021/06/12 01:40:11;;;;;;;16.20;12.38;;;14.70;99.90;;;;;;6283593;28;20084;-80
2021/06/12 01:43:12;;;;;;;11.82;10.75;;;14.70;99.90;;;;;;6282975;28;20504;-79
2021/06/12 01:46:12;;;;;;;11.63;10.40;;;14.70;99.90;;;;;;6300031;28;20034;-85
2021/06/12 01:49:14;;;;;;;12.02;10.82;;;14.80;99.90;;;;;;6299399;28;21966;-79
2021/06/12 01:52:15;;;;;;;12.85;11.45;;;14.70;99.90;;;;;;6299984;28;20032;-83
2021/06/12 01:55:17;;;;;;;11.95;10.93;;;14.70;99.90;;;;;;6299954;28;20101;-83
2021/06/12 01:58:20;;;;;;;13.18;10.55;;;14.80;99.90;;;;;;6299677;28;20107;-80
2021/06/12 02:01:22;;;;;;;14.63;11.30;;;14.70;99.90;;;;;;6298758;28;20040;-79
2021/06/12 02:04:22;;;;;;;12.05;10.68;;;14.70;99.90;;;;;;6316641;28;20028;-84
2021/06/12 02:07:23;;;;;;;13.63;11.13;;;;;;;;;;6299643;28;20032;-81
2021/06/12 02:10:26;;;;;;;13.18;11.88;;;14.80;99.90;;;;;;6316403;28;20489;-80
2021/06/12 02:13:27;;;;;;;12.15;10.85;;;14.80;99.90;;;;;;6299894;28;20036;-85
2021/06/12 02:16:27;;;;;;;13.52;12.18;;;15.00;99.90;;;;;;6282643;28;20707;-81
2021/06/12 02:19:28;;;;;;;16.25;11.70;;;15.00;99.90;;;;;;6316449;28;20032;-80
2021/06/12 02:22:28;;;;;;;12.85;11.23;;;14.90;99.90;;;;;;6316191;28;20484;-79
2021/06/12 02:25:29;;;;;;;12.07;11.00;;;15.00;99.90;;;;;;6299305;28;20024;-80
2021/06/12 02:28:35;;;;;;;13.10;11.20;;;14.80;99.90;;;;;;6299360;28;20032;-79
2021/06/12 02:31:44;;;;;;;12.95;11.65;;;15.10;99.90;;;;;;6315815;28;20047;-81
2021/06/12 02:34:45;;;;;;;12.65;11.45;;;14.90;99.90;;;;;;6316263;28;20029;-85
2021/06/12 02:37:47;;;;;;;14.23;12.20;;;14.80;99.90;;;;;;6282134;28;20359;-84
2021/06/12 02:40:47;;;;;;;14.00;12.57;;;14.70;99.90;;;;;;6282650;28;20027;-83
2021/06/12 02:43:48;;;;;;;11.80;10.68;;;14.60;99.90;;;;;;6299249;28;20085;-83
2021/06/12 02:46:49;;;;;;;13.40;11.55;;;14.80;99.90;;;;;;6299401;28;20024;-82
2021/06/12 02:49:50;;;;;;;12.35;11.15;;;14.60;99.90;;;;;;6298724;28;20063;-79
2021/06/12 02:52:50;;;;;;;14.50;11.45;;;14.60;99.90;;;;;;6315981;28;20039;-79
2021/06/12 02:55:51;;;;;;;12.15;10.95;;;14.80;99.90;;;;;;6282604;28;20474;-80
2021/06/12 02:58:53;;;;;;;13.13;11.82;;;14.60;99.90;;;;;;6299062;28;20035;-80
2021/06/12 03:01:54;;;;;;;;;;;14.60;99.90;;;;;;6316183;28;20458;-82
2021/06/12 03:04:54;;;;;;;13.25;12.05;;;14.80;99.90;;;;;;6315647;28;20003;-85
2021/06/12 03:07:56;;;;;;;11.98;10.80;;;14.70;99.90;;;;;;6282193;28;20058;-83
2021/06/12 03:10:57;;;;;;;13.30;11.75;;;14.60;99.90;;;;;;6298627;28;20032;-83
2021/06/12 03:13:58;;;;;;;12.63;11.32;;;13.50;99.90;;;;;;6301336;28;20043;-82
2021/06/12 03:16:58;;;;;;;13.70;12.27;;;14.50;99.90;;;;;;6303046;28;20028;-79
2021/06/12 03:19:59;;;;;;;12.95;11.52;;;14.50;99.90;;;;;;6303954;28;20039;-80
2021/06/12 03:23:01;;;;;;;11.57;10.57;;;14.40;99.90;;;;;;6303161;28;20073;-79
2021/06/12 03:26:02;;;;;;;12.90;11.70;;;14.40;99.90;;;;;;6320028;28;20111;-82
2021/06/12 03:29:03;;;;;;;12.75;11.50;;;14.40;99.90;;;;;;6286187;28;20028;-80
2021/06/12 03:32:04;;;;;;;13.43;12.10;;;14.30;99.90;;;;;;6303011;28;20028;-79
2021/06/12 03:35:05;;;;;;;12.52;11.20;;;14.50;99.90;;;;;;6303010;28;20031;-79
2021/06/12 03:38:06;;;;;;;13.35;11.55;;;14.30;99.90;;;;;;6319641;28;20024;-80
2021/06/12 03:41:07;;;;;;;12.05;10.95;;;14.60;99.90;;;;;;6320112;28;20032;-79
2021/06/12 03:44:07;;;;;;;12.85;11.65;;;14.70;99.90;;;;;;6319667;28;20084;-84
2021/06/12 03:47:08;;;;;;;10.98;10.00;;;14.60;99.90;;;;;;6302932;28;20032;-82
2021/06/12 03:50:10;;;;;;;12.45;10.48;;;14.70;99.90;;;;;;6285182;28;20493;-79
2021/06/12 03:53:11;;;;;;;11.75;10.57;;;;;;;;;;6286195;28;20036;-80
2021/06/12 03:56:12;;;;;;;12.57;11.27;;;;;;;;;;6302831;28;20086;-81
2021/06/12 03:59:13;;;;;;;11.87;10.73;;;;;;;;;;6302572;28;20031;-84
2021/06/12 04:02:15;;;;;;;12.25;11.00;;;14.70;99.90;;;;;;6320902;28;20024;-81
2021/06/12 04:05:17;;;;;;;12.05;10.70;;;14.90;99.90;;;;;;6285859;28;20024;-80
2021/06/12 04:08:17;;;;;;;10.40;9.23;;;15.40;99.90;;;;;;6302564;28;20028;-85
2021/06/12 04:11:19;;;;;;;10.88;9.65;;;;;;;;;;6318928;28;20079;-82
2021/06/12 04:14:19;;;;;;;13.02;10.40;;;15.40;99.90;;;;;;6320718;28;20027;-80
2021/06/12 04:17:20;;;;;;;12.20;9.82;;;;;;;;;;6318907;28;20444;-80
2021/06/12 04:20:21;;;;;;;10.10;9.13;;;15.90;99.90;;;;;;6319370;28;20024;-79
2021/06/12 04:23:21;;;;;;;11.60;10.45;;;15.90;99.90;;;;;;6301947;28;20024;-80
2021/06/12 04:26:22;;;;;;;10.65;9.55;;;16.10;99.90;;;;;;6301583;28;20383;-81
2021/06/12 04:29:22;;;;;;;10.68;9.57;;;16.20;99.90;;;;;;6301815;28;20040;-83
2021/06/12 04:32:23;;;;;;;10.95;9.93;;;16.40;99.90;;;;;;6318364;28;20028;-84
2021/06/12 04:35:24;;;;;;;10.82;9.82;;;16.90;99.90;;;;;;6318378;28;20032;-80
2021/06/12 04:38:25;;;;;;;11.63;9.48;;;17.00;99.90;;;;;;6318252;28;20077;-81
2021/06/12 04:41:25;;;;;;;10.57;9.57;;;17.20;99.90;;;;;;6318758;28;20024;-79
2021/06/12 04:44:26;;;;;;;10.30;8.88;;;17.20;99.90;;;;;;6318100;28;20032;-83
2021/06/12 04:47:26;;;;;;;12.60;9.52;;;17.40;99.90;;;;;;6301611;28;20121;-84
2021/06/12 04:50:28;;;;;;;9.38;8.48;;;17.70;99.90;;;;;;6301053;28;20048;-85
2021/06/12 04:53:30;;;;;;;10.25;9.18;;;18.20;99.90;;;;;;6301355;28;20032;-83
2021/06/12 04:56:31;;;;;;;12.32;8.88;;;18.40;99.90;;;;;;6318247;28;20427;-80
2021/06/12 04:59:31;;;;;;;10.13;8.95;;;18.70;99.90;;;;;;6318009;28;20036;-83
2021/06/12 05:02:32;;;;;;;9.82;8.93;;;19.00;99.90;;;;;;6300600;28;20028;-81
2021/06/12 05:05:33;;;;;;;9.65;8.85;;;19.10;99.90;;;;;;6301008;28;20032;-86
2021/06/12 05:08:34;;;;;;;9.70;8.73;;;19.50;99.90;;;;;;6300961;28;20072;-80
2021/06/12 05:11:34;;;;;;;9.05;8.25;;;19.70;99.50;;;;;;6317429;28;20389;-81
2021/06/12 05:14:35;;;;;;;9.55;8.65;;;19.70;99.40;;;;;;6317265;28;20028;-84
2021/06/12 05:17:36;;;;;;;9.43;8.52;;;19.90;98.80;;;;;;6300478;28;20024;-84
2021/06/12 05:20:37;;;;;;;9.52;8.63;;;19.80;98.70;;;;;;6300299;28;20038;-83
2021/06/12 05:23:37;;;;;;;9.63;8.75;;;19.90;99.20;;;;;;6317995;28;20028;-81
2021/06/12 05:26:41;;;;;;;10.68;9.63;;;19.80;99.20;;;;;;6300665;28;20024;-82
2021/06/12 05:29:42;;;;;;;11.60;8.32;;;19.90;99.10;;;;;;6300065;28;20036;-80
2021/06/12 05:32:42;;;;;;;8.73;8.02;;;19.90;98.80;;;;;;6317557;28;20036;-86
2021/06/12 05:35:43;;;;;;;9.68;8.77;;;19.90;98.50;;;;;;6300099;28;20092;-85
2021/06/12 05:38:44;;;;;;;10.35;9.32;;;20.00;98.80;;;;;;6317274;28;20493;-84
2021/06/12 05:41:44;;;;;;;9.60;8.70;;;20.20;98.40;;;;;;6317646;28;20028;-82
2021/06/12 05:44:46;;;;;;;10.00;9.00;;;20.40;97.90;;;;;;6316937;28;20024;-81
2021/06/12 05:47:47;;;;;;;11.90;9.60;;;20.40;99.90;;;;;;6316542;28;20028;-79
2021/06/12 05:50:48;;;;;;;9.82;8.95;;;;;;;;;;6316739;28;20036;-79
2021/06/12 05:53:48;;;;;;;9.60;8.57;;;20.70;97.10;;;;;;6316564;28;20031;-82
2021/06/12 05:56:49;;;;;;;9.70;8.82;;;20.90;99.90;;;;;;6318322;28;20111;-80
2021/06/12 05:59:49;;;;;;;13.23;9.07;;;20.80;97.80;;;;;;6316539;28;20087;-80
2021/06/12 06:02:50;;;;;;;11.95;9.30;;;21.00;98.20;;;;;;6316834;28;20525;-81
2021/06/12 06:05:50;;;;;;;13.73;9.27;;;21.00;98.10;;;;;;6316557;28;20393;-80
2021/06/12 06:08:51;;;;;;;10.45;9.50;;;21.40;97.90;;;;;;6316417;28;20035;-81
2021/06/12 06:11:52;;;;;;;11.52;9.50;;;21.60;98.00;;;;;;6316236;28;20420;-81
2021/06/12 06:14:52;;;;;;;10.60;9.70;;;21.80;97.50;;;;;;6299660;28;20028;-80
2021/06/12 06:17:53;;;;;;;10.13;9.20;;;22.60;99.90;;;;;;6316408;28;20095;-79
2021/06/12 06:20:53;;;;;;;10.18;9.07;;;22.30;96.40;;;;;;6316146;28;20024;-79
2021/06/12 06:23:54;;;;;;;13.15;8.60;;;22.70;95.80;;;;;;6298708;28;20028;-80
2021/06/12 06:26:55;;;;;;;9.18;8.38;;;23.10;94.80;;;;;;6299319;28;20028;-80
2021/06/12 06:29:55;;;;;;;10.15;9.15;;;23.50;93.70;;;;;;6315353;28;20043;-82
2021/06/12 06:32:56;;;;;;;9.63;8.73;;;24.10;94.20;;;;;;6297931;28;20032;-78
2021/06/12 06:35:56;;;;;;;9.45;8.45;;;24.40;93.30;;;;;;6316072;28;20107;-81
2021/06/12 06:38:57;;;;;;;8.85;7.95;;;;;;;;;;6299154;28;20032;-80
2021/06/12 06:41:58;;;;;;;8.10;7.40;;;24.90;90.20;;;;;;6315907;28;20035;-81
2021/06/12 06:44:58;;;;;;;9.05;7.97;;;25.10;90.60;;;;;;6317547;28;20563;-82
2021/06/12 06:47:59;;;;;;;8.75;7.95;;;25.20;88.90;;;;;;6316176;28;20028;-79
2021/06/12 06:51:00;;;;;;;9.43;8.57;;;25.40;90.40;;;;;;6320195;28;20044;-81
2021/06/12 06:54:00;;;;;;;8.20;7.50;;;25.70;89.70;;;;;;6302163;28;20036;-83
2021/06/12 06:57:01;;;;;;;11.73;8.43;;;25.90;87.30;;;;;;6320882;28;20524;-83
2021/06/12 07:00:03;;;;;;;8.90;8.00;;;26.50;87.60;;;;;;6320081;28;20031;-82
2021/06/12 07:03:04;;;;;;;7.45;6.80;;;26.80;84.90;;;;;;6303398;28;20024;-85
2021/06/12 07:06:05;;;;;;;8.13;7.37;;;27.20;79.00;;;;;;6317167;28;20085;-85
2021/06/12 07:09:05;;;;;;;7.70;6.97;;;27.40;80.00;;;;;;6302755;28;20020;-85
2021/06/12 07:12:08;;;;;;;9.30;7.40;;;28.00;77.00;;;;;;6302974;28;20102;-87
2021/06/12 07:15:09;;;;;;;8.07;7.30;;;28.50;77.10;;;;;;6302886;28;20389;-85
2021/06/12 07:18:09;;;;;;;7.80;7.07;;;28.90;72.80;;;;;;6302489;28;20024;-84
2021/06/12 07:21:10;;;;;;;7.77;7.10;;;29.30;73.50;;;;;;6301490;28;20111;-82
2021/06/12 07:24:10;;;;;;;7.80;7.00;;;29.60;73.20;;;;;;6303252;28;20028;-85
2021/06/12 07:27:13;;;;;;;7.60;6.90;;;29.50;68.00;;;;;;6303588;28;20043;-83
2021/06/12 07:30:14;;;;;;;7.47;6.78;;;29.30;66.00;;;;;;6319905;28;20462;-83
2021/06/12 07:33:14;;;;;;;6.90;6.38;;;29.10;67.40;;;;;;6303186;28;20035;-85
2021/06/12 07:36:15;;;;;;;7.57;6.97;;;29.40;66.90;;;;;;6303705;28;20028;-84
2021/06/12 07:39:16;;;;;;;8.30;7.60;;;29.90;72.30;;;;;;6302749;28;20032;-84
2021/06/12 07:42:16;;;;;;;7.77;7.07;;;30.70;70.70;;;;;;6320304;28;20036;-84
2021/06/12 07:45:17;;;;;;;7.30;6.70;;;30.60;69.80;;;;;;6319890;28;20028;-82
2021/06/12 07:48:18;;;;;;;9.33;7.23;;;31.30;68.40;;;;;;6301896;28;20144;-82
2021/06/12 07:51:19;;;;;;;7.17;6.57;;;30.70;61.80;;;;;;6319088;28;20040;-84
2021/06/12 07:54:19;;;;;;;8.93;6.68;;;31.10;63.00;;;;;;6302471;28;20024;-83
2021/06/12 07:57:20;;;;;;;7.50;6.87;;;31.10;63.20;;;;;;6317462;28;20039;-85
2021/06/12 08:00:21;;;;;;;7.83;7.13;;;31.10;62.10;;;;;;6318313;28;20112;-80
2021/06/12 08:03:21;;;;;;;7.43;6.72;;;31.10;59.70;;;;;;6319988;28;20042;-81
2021/06/12 08:06:22;;;;;;;8.37;6.60;;;31.00;62.80;;;;;;6320313;28;20040;-80
2021/06/12 08:09:23;;;;;;;8.40;7.05;;;31.10;62.50;;;;;;6302253;28;20062;-79
2021/06/12 08:12:24;;;;;;;11.73;7.30;;;31.30;60.70;;;;;;6301615;28;20043;-81
2021/06/12 08:15:25;;;;;;;8.17;6.97;;;31.20;61.20;;;;;;6317632;28;20381;-79
2021/06/12 08:18:26;;;;;;;22.77;12.10;;;31.20;63.10;;;;;;6320099;28;20038;-80
2021/06/12 08:21:26;;;;;;;37.33;16.70;;;31.20;64.20;;;;;;6318752;28;20028;-80
2021/06/12 08:24:27;;;;;;;35.33;15.33;;;31.30;63.70;;;;;;6318794;28;20024;-77
2021/06/12 08:27:27;;;;;;;33.47;15.77;;;31.50;64.50;;;;;;6318556;28;20116;-84
2021/06/12 08:30:29;;;;;;;22.70;9.83;;;31.90;64.80;;;;;;6318329;28;20040;-79
2021/06/12 08:33:30;;;;;;;10.05;7.22;;;32.20;62.70;;;;;;6318511;28;20036;-85
2021/06/12 08:36:31;;;;;;;10.45;7.25;;;32.70;62.30;;;;;;6301059;28;20097;-80
2021/06/12 08:39:32;;;;;;;22.25;11.23;;;32.80;62.20;;;;;;6318570;28;20028;-80
2021/06/12 08:42:33;;;;;;;23.13;12.07;;;32.90;61.90;;;;;;6284765;28;20426;-80
2021/06/12 08:45:33;;;;;;;7.38;6.70;;;32.90;61.40;;;;;;6301406;28;20394;-80
2021/06/12 08:48:34;;;;;;;6.68;6.07;;;32.90;62.60;;;;;;6317678;28;20058;-81
2021/06/12 08:51:34;;;;;;;8.20;5.88;;;33.00;62.30;;;;;;6301230;28;20044;-80
2021/06/12 08:54:35;;;;;;;5.57;5.07;;;33.20;60.00;;;;;;6300003;28;20020;-81
2021/06/12 08:57:36;;;;;;;6.32;5.72;;;33.50;59.60;;;;;;6301208;28;20493;-80
2021/06/12 09:00:37;;;;;;;;;;;33.60;60.70;;;;;;6318037;28;20024;-80
2021/06/12 09:03:41;;;;;;;5.43;4.87;;;34.00;57.80;;;;;;6317982;28;19908;-82
2021/06/12 09:06:42;;;;;;;7.65;5.63;;;34.00;58.50;;;;;;6317995;28;20373;-80
2021/06/12 09:09:43;;;;;;;7.13;5.03;;;34.10;59.10;;;;;;6317267;28;20117;-80
2021/06/12 09:12:50;;;;;;;5.22;4.72;;;34.30;58.30;;;;;;6317266;28;20399;-80
2021/06/12 09:15:51;;;;;;;8.20;4.95;;;34.30;58.70;;;;;;6318526;28;20028;-81
2021/06/12 09:18:53;;;;;;;6.72;5.95;;;34.40;59.80;;;;;;6300151;28;20024;-81
2021/06/12 09:21:58;;;;;;;7.25;6.55;;;34.10;58.70;;;;;;6317406;28;20358;-85
2021/06/12 09:24:59;;;;;;;5.88;5.30;;;34.00;58.20;;;;;;6299258;28;20031;-81
2021/06/12 09:27:59;;;;;;;7.60;5.88;;;33.90;57.70;;;;;;6317182;28;20032;-79
2021/06/12 09:31:19;;;;;;;8.18;6.05;;;33.90;58.60;;;;;;6318294;28;20123;-83
2021/06/12 09:34:25;;;;;;;8.80;5.35;;;34.00;57.30;;;;;;6317271;28;20116;-82
2021/06/12 09:37:27;;;;;;;5.63;5.10;;;34.00;58.20;;;;;;6317286;28;20058;-81
2021/06/12 09:40:32;;;;;;;11.68;5.45;;;34.30;58.50;;;;;;6317146;28;20067;-81
2021/06/12 09:43:33;;;;;;;8.05;5.05;;;34.20;57.50;;;;;;6316915;28;20028;-81
2021/06/12 09:46:41;;;;;;;6.47;5.10;;;34.20;56.90;;;;;;6316428;28;20805;-81
2021/06/12 09:49:42;;;;;;;5.57;5.10;;;34.30;56.00;;;;;;6316631;28;20436;-81
2021/06/12 09:52:52;;;;;;;4.97;4.47;;;34.20;59.10;;;;;;6316788;28;20032;-80
2021/06/12 09:55:52;;;;;;;6.53;5.20;;;34.20;56.60;;;;;;6300281;28;20033;-80
2021/06/12 09:58:53;;;;;;;5.40;4.88;;;34.20;59.90;;;;;;6316688;28;20028;-80
2021/06/12 10:05:32;;;;;;;7.78;5.82;;;34.80;54.60;;;;;;6317909;28;19908;-80
2021/06/12 10:08:33;;;;;;;7.53;5.82;;;34.00;55.00;;;;;;6316632;28;20568;-80
2021/06/12 10:11:35;;;;;;;;;;;34.20;56.80;;;;;;6316747;28;20047;-80
2021/06/12 10:14:36;;;;;;;6.18;4.82;;;34.30;54.70;;;;;;6316820;28;19904;-80
2021/06/12 10:17:47;;;;;;;5.65;4.78;;;34.40;54.20;;;;;;6316754;28;20115;-80
2021/06/12 10:20:47;;;;;;;;;;;34.50;56.50;;;;;;6313219;28;20042;-81
2021/06/12 10:23:49;;;;;;;6.10;5.50;;;34.40;54.70;;;;;;6320298;28;20365;-80
2021/06/12 10:26:49;;;;;;;;;;;34.30;55.50;;;;;;6321920;28;20110;-81
2021/06/12 10:29:50;;;;;;;6.83;5.10;;;34.40;56.50;;;;;;6322855;28;20270;-81
2021/06/12 10:32:50;;;;;;;;;;;34.70;55.10;;;;;;6304674;28;20027;-81
2021/06/12 10:35:51;;;;;;;5.93;4.67;;;34.60;54.30;;;;;;6321788;28;20404;-79
2021/06/12 10:38:52;;;;;;;;;;;34.60;55.00;;;;;;6304517;28;20089;-79
2021/06/12 10:42:14;;;;;;;5.80;4.68;;;34.30;53.70;;;;;;6322689;28;19908;-79
2021/06/12 10:45:15;;;;;;;6.40;5.00;;;34.20;55.00;;;;;;6322488;28;20024;-79
2021/06/12 10:48:43;;;;;;;7.90;4.90;;;33.60;55.70;;;;;;6321306;28;20060;-79
2021/06/12 10:51:44;;;;;;;5.70;5.20;;;33.30;56.10;;;;;;6322134;28;20078;-79
2021/06/12 10:54:45;;;;;;;6.05;5.45;;;33.10;57.80;;;;;;6304017;28;20599;-81
2021/06/12 10:57:46;;;;;;;5.95;5.45;;;33.10;64.50;;;;;;6320592;28;20334;-81
2021/06/12 11:01:06;;;;;;;5.53;4.95;;;33.20;63.30;;;;;;6320991;28;20028;-80
2021/06/12 11:04:08;;;;;;;5.00;4.60;;;32.70;62.40;;;;;;6320815;28;20028;-80
2021/06/12 11:07:27;;;;;;;6.55;5.18;;;32.60;60.70;;;;;;6304056;28;20101;-82
2021/06/12 11:10:28;;;;;;;6.00;5.22;;;32.80;60.00;;;;;;6320638;28;20036;-80
2021/06/12 11:13:29;;;;;;;6.40;5.55;;;32.80;60.40;;;;;;6320555;28;20105;-81
2021/06/12 11:16:29;;;;;;;5.85;5.32;;;32.90;62.10;;;;;;6321526;28;20072;-80
2021/06/12 11:19:31;;;;;;;6.13;5.53;;;33.30;61.20;;;;;;6320558;28;20032;-80
2021/06/12 11:22:54;;;;;;;6.32;5.70;;;33.50;59.50;;;;;;6320165;28;20123;-80
2021/06/12 11:25:56;;;;;;;6.00;5.40;;;33.30;56.30;;;;;;6303556;28;20036;-81
2021/06/12 11:29:10;;;;;;;5.90;5.40;;;32.90;59.80;;;;;;6320489;28;20024;-81
2021/06/12 11:32:29;;;;;;;6.35;5.55;;;32.20;61.10;;;;;;6320170;28;20062;-80
2021/06/12 11:35:47;;;;;;;6.10;5.60;;;32.40;63.30;;;;;;6302232;28;20024;-80
2021/06/12 11:38:50;;;;;;;8.93;5.93;;;32.40;59.70;;;;;;6320130;28;20381;-81
2021/06/12 11:41:51;;;;;;;6.43;5.85;;;32.70;59.00;;;;;;6320066;28;20036;-82
2021/06/12 11:44:52;;;;;;;5.68;5.18;;;32.40;62.00;;;;;;6320035;28;20059;-80
2021/06/12 11:47:53;;;;;;;6.17;5.57;;;32.20;61.00;;;;;;6319607;28;20341;-80
2021/06/12 11:50:56;;;;;;;7.22;5.55;;;32.10;60.30;;;;;;6319414;28;20363;-81
2021/06/12 11:54:15;;;;;;;5.63;5.13;;;31.70;60.60;;;;;;6319278;28;20046;-80
2021/06/12 11:57:15;;;;;;;5.90;5.40;;;31.70;64.20;;;;;;6319487;28;20027;-83
2021/06/12 12:00:29;;;;;;;6.33;5.73;;;31.90;62.40;;;;;;6302671;28;20827;-79
2021/06/12 12:03:30;;;;;;;6.65;6.00;;;31.80;61.50;;;;;;6319546;28;20470;-80
2021/06/12 12:06:31;;;;;;;6.20;5.43;;;31.80;62.30;;;;;;6319341;28;20028;-80
2021/06/12 12:09:34;;;;;;;5.90;5.40;;;31.80;63.70;;;;;;6320395;28;20969;-80
2021/06/12 12:12:35;;;;;;;8.15;5.78;;;31.80;62.30;;;;;;6319296;28;20484;-81
2021/06/12 12:15:37;;;;;;;7.15;5.40;;;31.50;63.00;;;;;;6302091;28;20474;-81
2021/06/12 12:18:47;;;;;;;6.10;5.60;;;31.30;63.40;;;;;;6302229;28;20037;-81
2021/06/12 12:21:50;;;;;;;6.03;5.27;;;31.50;59.70;;;;;;6302085;28;20031;-80
2021/06/12 12:24:55;;;;;;;6.00;5.50;;;31.20;61.60;;;;;;6318738;28;20457;-81
2021/06/12 12:28:08;;;;;;;6.32;5.72;;;31.10;62.10;;;;;;6319240;28;20035;-80
2021/06/12 12:31:09;;;;;;;6.10;5.50;;;31.40;63.80;;;;;;6301850;28;20546;-80
2021/06/12 12:34:09;;;;;;;6.27;5.67;;;31.30;65.70;;;;;;6318642;28;20061;-80
2021/06/12 12:37:20;;;;;;;6.72;6.13;;;31.20;63.60;;;;;;6318562;28;20024;-78
2021/06/12 12:40:21;;;;;;;7.33;6.57;;;30.80;62.30;;;;;;6302372;28;20077;-81
2021/06/12 12:43:22;;;;;;;7.05;5.68;;;30.80;62.90;;;;;;6318659;28;20055;-80
2021/06/12 12:46:22;;;;;;;9.33;6.07;;;30.80;64.40;;;;;;6318074;28;20046;-80
2021/06/12 12:49:28;;;;;;;6.47;5.93;;;30.70;64.40;;;;;;6317713;28;20055;-81
2021/06/12 12:52:29;;;;;;;6.82;5.63;;;30.60;63.70;;;;;;6318295;28;20047;-80
2021/06/12 12:55:29;;;;;;;6.13;5.63;;;30.80;65.30;;;;;;6318134;28;20111;-81
2021/06/12 12:58:30;;;;;;;8.27;6.25;;;30.10;78.00;;;;;;6318056;28;20028;-80
2021/06/12 13:01:31;;;;;;;6.80;6.20;;;30.20;81.90;;;;;;6318114;28;20038;-80
2021/06/12 13:04:39;;;;;;;7.00;6.30;;;30.00;79.10;;;;;;6317915;28;20024;-80
2021/06/12 13:07:40;;;;;;;6.93;6.32;;;29.90;64.80;;;;;;6318038;28;20466;-81
2021/06/12 13:10:41;;;;;;;7.20;6.53;;;29.70;69.30;;;;;;6317880;28;20039;-79
2021/06/12 13:13:42;;;;;;;7.47;6.57;;;30.00;70.00;;;;;;6300676;28;20032;-80
2021/06/12 13:16:44;;;;;;;8.37;7.63;;;30.30;70.80;;;;;;6300462;28;20028;-80
2021/06/12 13:19:47;;;;;;;7.50;6.90;;;30.50;65.20;;;;;;6317517;28;20177;-82
2021/06/12 13:22:48;;;;;;;7.70;7.00;;;30.40;61.50;;;;;;6318788;28;20024;-81
2021/06/12 13:25:48;;;;;;;7.20;6.40;;;30.10;66.40;;;;;;6317547;28;20523;-80
2021/06/12 13:28:50;;;;;;;7.63;6.95;;;30.00;69.40;;;;;;6317170;28;20040;-81
2021/06/12 13:31:50;;;;;;;9.10;8.20;;;29.80;70.10;;;;;;6300194;28;20043;-80
2021/06/12 13:34:51;;;;;;;11.17;7.30;;;29.40;69.30;;;;;;6317485;28;20040;-81
2021/06/12 13:38:11;;;;;;;7.60;6.50;;;29.20;70.20;;;;;;6318310;28;20115;-82
2021/06/12 13:41:12;;;;;;;6.03;5.43;;;28.90;66.70;;;;;;6300133;28;20027;-80
2021/06/12 13:44:12;;;;;;;7.77;5.23;;;28.70;68.50;;;;;;6317259;28;20024;-79
2021/06/12 13:47:13;;;;;;;5.27;4.77;;;28.40;68.80;;;;;;6317121;28;20051;-80
2021/06/12 13:50:13;;;;;;;4.60;4.20;;;28.10;68.70;;;;;;6318403;28;20064;-79
2021/06/12 13:53:14;;;;;;;4.30;3.90;;;28.10;68.60;;;;;;6317576;28;20415;-80
2021/06/12 13:56:23;;;;;;;5.37;3.70;;;28.00;68.60;;;;;;6318676;28;20035;-81
2021/06/12 13:59:23;;;;;;;4.00;3.60;;;28.30;68.30;;;;;;6316722;28;20080;-82
2021/06/12 14:02:24;;;;;;;3.70;3.40;;;28.20;66.90;;;;;;6300046;28;20462;-80
2021/06/12 14:05:24;;;;;;;6.67;3.77;;;28.30;67.90;;;;;;6316665;28;20028;-83
2021/06/12 14:08:25;;;;;;;4.40;3.40;;;28.30;66.50;;;;;;6317327;28;20127;-80
2021/06/12 14:11:25;;;;;;;4.27;3.83;;;28.20;66.20;;;;;;6317981;28;20118;-80
2021/06/12 14:14:27;;;;;;;3.90;3.53;;;28.00;68.40;;;;;;6299507;28;20492;-81
2021/06/12 14:17:27;;;;;;;5.03;3.10;;;28.00;67.40;;;;;;6299438;28;20115;-81
2021/06/12 14:20:28;;;;;;;3.47;3.17;;;28.10;70.60;;;;;;6317325;28;20481;-81
2021/06/12 14:23:29;;;;;;;3.50;3.20;;;28.10;68.60;;;;;;6316331;28;20035;-81
2021/06/12 14:26:31;;;;;;;3.30;3.00;;;28.20;68.30;;;;;;6316786;28;20020;-82
2021/06/12 14:29:34;;;;;;;5.20;3.10;;;28.10;68.50;;;;;;6299432;28;20465;-81
2021/06/12 14:32:36;;;;;;;5.07;3.70;;;27.90;68.70;;;;;;6299779;28;20036;-81
2021/06/12 14:35:38;;;;;;;7.78;3.22;;;27.70;68.70;;;;;;6299579;28;20463;-81
2021/06/12 14:38:39;;;;;;;;;;;27.50;70.90;;;;;;6300217;28;20081;-80
2021/06/12 14:41:40;;;;;;;4.13;3.45;;;27.40;70.20;;;;;;6316411;28;19908;-81
2021/06/12 14:44:40;;;;;;;3.60;3.30;;;27.40;71.20;;;;;;6315940;28;20069;-80
2021/06/12 14:47:41;;;;;;;6.63;3.43;;;27.00;73.80;;;;;;6299424;28;20537;-80
2021/06/12 14:50:42;;;;;;;3.67;3.37;;;26.90;72.70;;;;;;6298936;28;20062;-80
2021/06/12 14:53:42;;;;;;;3.93;2.90;;;26.90;72.40;;;;;;6317702;28;20056;-80
2021/06/12 14:56:43;;;;;;;3.27;2.97;;;26.80;72.80;;;;;;6299266;28;20031;-80
2021/06/12 14:59:43;;;;;;;2.87;2.63;;;26.50;74.40;;;;;;6298936;28;20614;-80
2021/06/12 15:02:45;;;;;;;3.57;2.33;;;26.60;73.70;;;;;;6299263;28;20031;-81
2021/06/12 15:05:46;;;;;;;;;;;26.50;72.00;;;;;;6317801;28;20028;-81
2021/06/12 15:08:46;;;;;;;5.47;2.95;;;26.50;72.30;;;;;;6317841;28;19915;-79
2021/06/12 15:11:47;;;;;;;3.10;2.70;;;26.40;72.90;;;;;;6320530;28;20036;-80
2021/06/12 15:14:47;;;;;;;4.57;2.37;;;26.40;74.80;;;;;;6320573;28;20125;-80
2021/06/12 15:18:05;;;;;;;2.60;2.40;;;26.60;74.20;;;;;;6320821;28;20024;-81
2021/06/12 15:21:06;;;;;;;2.58;2.20;;;26.80;72.80;;;;;;6320312;28;20560;-81
2021/06/12 15:24:06;;;;;;;2.50;2.30;;;27.20;83.90;;;;;;6303530;28;20089;-81
2021/06/12 15:27:07;;;;;;;2.40;2.20;;;27.40;82.50;;;;;;6303087;28;20028;-81
2021/06/12 15:30:08;;;;;;;2.40;2.10;;;26.90;80.80;;;;;;6319615;28;20032;-80
2021/06/12 15:33:12;;;;;;;3.15;2.38;;;27.50;80.10;;;;;;6303422;28;20115;-80
2021/06/12 15:36:13;;;;;;;2.00;1.80;;;27.60;69.20;;;;;;6320710;28;20028;-80
2021/06/12 15:39:13;;;;;;;1.97;1.80;;;27.70;72.20;;;;;;6319782;28;20036;-80
2021/06/12 15:42:14;;;;;;;2.10;2.00;;;27.50;66.90;;;;;;6319830;28;20081;-80
2021/06/12 15:45:15;;;;;;;2.30;1.80;;;27.50;66.00;;;;;;6302846;28;20037;-81
2021/06/12 15:48:16;;;;;;;2.83;2.17;;;27.50;67.00;;;;;;6319654;28;20063;-81